Terminal Aerodrome Forecast
Issued by NWS

Home | Current Version | Previous Version | Graphics & Text | Print | Product List | Glossary On
Versions: 1 2 3 4 5 6 7 8 9 10 11 12 13 14 15 16 17 18
339
FTUS43 KMPX 280847 AAA
TAFAXN
TAF AMD
KAXN 280847Z 2809/2906 07010KT 6SM -RASN BR SCT020 OVC035
      TEMPO 2809/2811 3SM -SN BR OVC025
     FM281200 06010KT P6SM SCT025 OVC040
     FM281900 07009KT P6SM VCSH BKN040 OVC090
     FM290200 07004KT P6SM SCT050 BKN100=

USA.gov is the U.S. government's official web portal to all federal, state and local government web resources and services.